Bismarck, North Dakota
Current Conditions -  °F | °C
As of 4:18 AM on Saturday 20 Dec 2014 (Local Time) from KBIS Reporting Station
Haze Haze  
Wind Chill:   Ceiling: 200
Heat Index: 15°   Visibility: 1mi
Dew Point: 13°   Wind: 8mph
Humidity: 91%   Direction: 60°ENE
Pressure: 29.93"   Gusts: NA
Location:  46.81°N, 100.77°W
Report Text: KBIS 201018Z AUTO 06007KT 1SM R31/4500VP6000FT BR OVC002 M09/M11 A2993 RMK AO2 T10941106
Loading
Personal Weather Stations






























Interactive Weather Map New forecast layout! Learn more

10-Day Weather Forecast

Advertisements
Track Severe Weather on mobile